sensor_id;sensor_type;location;lat;lon;timestamp;temperature;humidity
18682;DHT22;9471;51.168;4.154;2022-10-30T00:00:58;19.20;99.90
18682;DHT22;9471;51.168;4.154;2022-10-30T00:03:25;19.10;99.90
18682;DHT22;9471;51.168;4.154;2022-10-30T00:05:53;19.10;99.90
18682;DHT22;9471;51.168;4.154;2022-10-30T00:08:21;19.00;99.90
18682;DHT22;9471;51.168;4.154;2022-10-30T00:10:50;19.00;99.90
18682;DHT22;9471;51.168;4.154;2022-10-30T00:13:17;18.90;99.90
18682;DHT22;9471;51.168;4.154;2022-10-30T00:15:46;18.90;99.90
18682;DHT22;9471;51.168;4.154;2022-10-30T00:18:14;19.00;99.90
18682;DHT22;9471;51.168;4.154;2022-10-30T00:20:41;19.00;99.90
18682;DHT22;9471;51.168;4.154;2022-10-30T00:23:09;18.90;99.90
18682;DHT22;9471;51.168;4.154;2022-10-30T00:25:36;18.90;99.90
18682;DHT22;9471;51.168;4.154;2022-10-30T00:28:03;18.90;99.90
18682;DHT22;9471;51.168;4.154;2022-10-30T00:30:30;18.80;99.90
18682;DHT22;9471;51.168;4.154;2022-10-30T00:32:57;18.90;99.90
18682;DHT22;9471;51.168;4.154;2022-10-30T00:35:24;18.90;99.90
18682;DHT22;9471;51.168;4.154;2022-10-30T00:37:51;18.80;99.90
18682;DHT22;9471;51.168;4.154;2022-10-30T00:40:20;18.70;99.90
18682;DHT22;9471;51.168;4.154;2022-10-30T00:42:47;18.60;99.90
18682;DHT22;9471;51.168;4.154;2022-10-30T00:45:15;18.60;99.90
18682;DHT22;9471;51.168;4.154;2022-10-30T00:47:45;18.60;99.90
18682;DHT22;9471;51.168;4.154;2022-10-30T00:50:15;18.60;99.90
18682;DHT22;9471;51.168;4.154;2022-10-30T00:52:46;18.60;99.90
18682;DHT22;9471;51.168;4.154;2022-10-30T00:55:17;18.60;99.90
18682;DHT22;9471;51.168;4.154;2022-10-30T00:57:46;18.60;99.90
18682;DHT22;9471;51.168;4.154;2022-10-30T01:00:16;18.60;99.90
18682;DHT22;9471;51.168;4.154;2022-10-30T01:02:45;18.60;99.90
18682;DHT22;9471;51.168;4.154;2022-10-30T01:05:15;18.50;99.90
18682;DHT22;9471;51.168;4.154;2022-10-30T01:07:42;18.60;99.90
18682;DHT22;9471;51.168;4.154;2022-10-30T01:10:10;18.60;99.90
18682;DHT22;9471;51.168;4.154;2022-10-30T01:12:38;18.50;99.90
18682;DHT22;9471;51.168;4.154;2022-10-30T01:15:08;18.50;99.90
18682;DHT22;9471;51.168;4.154;2022-10-30T01:20:58;18.50;99.90
18682;DHT22;9471;51.168;4.154;2022-10-30T01:23:36;18.50;99.90
18682;DHT22;9471;51.168;4.154;2022-10-30T01:26:11;18.40;99.90
18682;DHT22;9471;51.168;4.154;2022-10-30T01:28:54;18.40;99.90
18682;DHT22;9471;51.168;4.154;2022-10-30T01:31:37;18.40;99.90
18682;DHT22;9471;51.168;4.154;2022-10-30T01:34:17;18.40;99.90
18682;DHT22;9471;51.168;4.154;2022-10-30T01:36:49;18.40;99.90
18682;DHT22;9471;51.168;4.154;2022-10-30T01:39:20;18.50;99.90
18682;DHT22;9471;51.168;4.154;2022-10-30T01:41:48;18.50;99.90
18682;DHT22;9471;51.168;4.154;2022-10-30T01:44:17;18.50;99.90
18682;DHT22;9471;51.168;4.154;2022-10-30T01:47:03;18.30;99.90
18682;DHT22;9471;51.168;4.154;2022-10-30T01:49:53;18.40;99.90
18682;DHT22;9471;51.168;4.154;2022-10-30T01:52:30;18.50;99.90
18682;DHT22;9471;51.168;4.154;2022-10-30T01:55:06;18.50;99.90
18682;DHT22;9471;51.168;4.154;2022-10-30T01:57:40;18.40;99.90
18682;DHT22;9471;51.168;4.154;2022-10-30T02:00:13;18.30;99.90
18682;DHT22;9471;51.168;4.154;2022-10-30T02:02:42;18.20;99.90
18682;DHT22;9471;51.168;4.154;2022-10-30T02:05:12;18.10;99.90
18682;DHT22;9471;51.168;4.154;2022-10-30T02:07:40;18.10;99.90
18682;DHT22;9471;51.168;4.154;2022-10-30T02:10:09;18.10;99.90
18682;DHT22;9471;51.168;4.154;2022-10-30T02:12:36;18.20;99.90
18682;DHT22;9471;51.168;4.154;2022-10-30T02:15:04;18.20;99.90
18682;DHT22;9471;51.168;4.154;2022-10-30T02:17:31;18.20;99.90
18682;DHT22;9471;51.168;4.154;2022-10-30T02:20:00;18.30;99.90
18682;DHT22;9471;51.168;4.154;2022-10-30T02:22:28;18.30;99.90
18682;DHT22;9471;51.168;4.154;2022-10-30T02:24:56;18.30;99.90
18682;DHT22;9471;51.168;4.154;2022-10-30T02:27:23;18.20;99.90
18682;DHT22;9471;51.168;4.154;2022-10-30T02:29:50;18.10;99.90
18682;DHT22;9471;51.168;4.154;2022-10-30T02:32:17;18.10;99.90
18682;DHT22;9471;51.168;4.154;2022-10-30T02:34:44;18.10;99.90
18682;DHT22;9471;51.168;4.154;2022-10-30T02:37:10;18.10;99.90
18682;DHT22;9471;51.168;4.154;2022-10-30T02:39:39;18.00;99.90
18682;DHT22;9471;51.168;4.154;2022-10-30T02:42:05;18.00;99.90
18682;DHT22;9471;51.168;4.154;2022-10-30T02:44:32;17.90;99.90
18682;DHT22;9471;51.168;4.154;2022-10-30T02:46:59;18.00;99.90
18682;DHT22;9471;51.168;4.154;2022-10-30T02:49:26;17.90;99.90
18682;DHT22;9471;51.168;4.154;2022-10-30T02:51:53;17.90;99.90
18682;DHT22;9471;51.168;4.154;2022-10-30T02:54:20;17.90;99.90
18682;DHT22;9471;51.168;4.154;2022-10-30T02:56:48;17.90;99.90
18682;DHT22;9471;51.168;4.154;2022-10-30T02:59:15;17.90;99.90
18682;DHT22;9471;51.168;4.154;2022-10-30T03:01:42;17.80;99.90
18682;DHT22;9471;51.168;4.154;2022-10-30T03:04:09;17.80;99.90
18682;DHT22;9471;51.168;4.154;2022-10-30T03:06:36;17.70;99.90
18682;DHT22;9471;51.168;4.154;2022-10-30T03:09:03;17.70;99.90
18682;DHT22;9471;51.168;4.154;2022-10-30T03:11:32;17.70;99.90
18682;DHT22;9471;51.168;4.154;2022-10-30T03:14:00;17.70;99.90
18682;DHT22;9471;51.168;4.154;2022-10-30T03:16:28;17.60;99.90
18682;DHT22;9471;51.168;4.154;2022-10-30T03:18:56;17.60;99.90
18682;DHT22;9471;51.168;4.154;2022-10-30T03:21:25;17.50;99.90
18682;DHT22;9471;51.168;4.154;2022-10-30T03:23:53;17.60;99.90
18682;DHT22;9471;51.168;4.154;2022-10-30T03:26:20;17.50;99.90
18682;DHT22;9471;51.168;4.154;2022-10-30T03:28:48;17.50;99.90
18682;DHT22;9471;51.168;4.154;2022-10-30T03:31:17;17.50;99.90
18682;DHT22;9471;51.168;4.154;2022-10-30T03:33:45;17.40;99.90
18682;DHT22;9471;51.168;4.154;2022-10-30T03:36:13;17.40;99.90
18682;DHT22;9471;51.168;4.154;2022-10-30T03:38:41;17.40;99.90
18682;DHT22;9471;51.168;4.154;2022-10-30T03:41:08;17.40;99.90
18682;DHT22;9471;51.168;4.154;2022-10-30T03:43:35;17.40;99.90
18682;DHT22;9471;51.168;4.154;2022-10-30T03:46:02;17.40;99.90
18682;DHT22;9471;51.168;4.154;2022-10-30T03:48:30;17.40;99.90
18682;DHT22;9471;51.168;4.154;2022-10-30T03:50:58;17.30;99.90
18682;DHT22;9471;51.168;4.154;2022-10-30T03:53:28;17.30;99.90
18682;DHT22;9471;51.168;4.154;2022-10-30T03:55:57;17.30;99.90
18682;DHT22;9471;51.168;4.154;2022-10-30T03:58:25;17.30;99.90
18682;DHT22;9471;51.168;4.154;2022-10-30T04:00:52;17.20;99.90
18682;DHT22;9471;51.168;4.154;2022-10-30T04:03:19;17.20;99.90
18682;DHT22;9471;51.168;4.154;2022-10-30T04:05:47;17.20;99.90
18682;DHT22;9471;51.168;4.154;2022-10-30T04:08:16;17.10;99.90
18682;DHT22;9471;51.168;4.154;2022-10-30T04:10:44;17.20;99.90
18682;DHT22;9471;51.168;4.154;2022-10-30T04:13:13;17.20;99.90
18682;DHT22;9471;51.168;4.154;2022-10-30T04:15:40;17.20;99.90
18682;DHT22;9471;51.168;4.154;2022-10-30T04:18:09;17.10;99.90
18682;DHT22;9471;51.168;4.154;2022-10-30T04:20:37;17.20;99.90
18682;DHT22;9471;51.168;4.154;2022-10-30T04:23:07;17.20;99.90
18682;DHT22;9471;51.168;4.154;2022-10-30T04:25:34;17.20;99.90
18682;DHT22;9471;51.168;4.154;2022-10-30T04:28:02;17.30;99.90
18682;DHT22;9471;51.168;4.154;2022-10-30T04:30:29;17.30;99.90
18682;DHT22;9471;51.168;4.154;2022-10-30T04:33:00;17.30;99.90
18682;DHT22;9471;51.168;4.154;2022-10-30T04:35:29;17.40;99.90
18682;DHT22;9471;51.168;4.154;2022-10-30T04:37:58;17.30;99.90
18682;DHT22;9471;51.168;4.154;2022-10-30T04:40:28;17.30;99.90
18682;DHT22;9471;51.168;4.154;2022-10-30T04:42:55;17.30;99.90
18682;DHT22;9471;51.168;4.154;2022-10-30T04:45:24;17.20;99.90
18682;DHT22;9471;51.168;4.154;2022-10-30T04:47:51;17.20;99.90
18682;DHT22;9471;51.168;4.154;2022-10-30T04:50:18;17.10;99.90
18682;DHT22;9471;51.168;4.154;2022-10-30T04:52:45;17.00;99.90
18682;DHT22;9471;51.168;4.154;2022-10-30T04:55:12;17.00;99.90
18682;DHT22;9471;51.168;4.154;2022-10-30T04:57:41;17.00;99.90
18682;DHT22;9471;51.168;4.154;2022-10-30T05:00:09;16.90;99.90
18682;DHT22;9471;51.168;4.154;2022-10-30T05:02:36;16.90;99.90
18682;DHT22;9471;51.168;4.154;2022-10-30T05:05:04;17.00;99.90
18682;DHT22;9471;51.168;4.154;2022-10-30T05:07:31;17.00;99.90
18682;DHT22;9471;51.168;4.154;2022-10-30T05:09:58;16.90;99.90
18682;DHT22;9471;51.168;4.154;2022-10-30T05:12:25;16.90;99.90
18682;DHT22;9471;51.168;4.154;2022-10-30T05:14:53;16.80;99.90
18682;DHT22;9471;51.168;4.154;2022-10-30T05:17:20;16.80;99.90
18682;DHT22;9471;51.168;4.154;2022-10-30T05:19:47;16.80;99.90
18682;DHT22;9471;51.168;4.154;2022-10-30T05:22:14;16.80;99.90
18682;DHT22;9471;51.168;4.154;2022-10-30T05:24:41;16.70;99.90
18682;DHT22;9471;51.168;4.154;2022-10-30T05:27:08;16.70;99.90
18682;DHT22;9471;51.168;4.154;2022-10-30T05:29:34;16.70;99.90
18682;DHT22;9471;51.168;4.154;2022-10-30T05:32:03;16.70;99.90
18682;DHT22;9471;51.168;4.154;2022-10-30T05:34:30;16.70;99.90
18682;DHT22;9471;51.168;4.154;2022-10-30T05:36:57;16.60;99.90
18682;DHT22;9471;51.168;4.154;2022-10-30T05:39:25;16.60;99.90
18682;DHT22;9471;51.168;4.154;2022-10-30T05:41:52;16.50;99.90
18682;DHT22;9471;51.168;4.154;2022-10-30T05:44:19;16.50;99.90
18682;DHT22;9471;51.168;4.154;2022-10-30T05:46:47;16.50;99.90
18682;DHT22;9471;51.168;4.154;2022-10-30T05:49:15;16.50;99.90
18682;DHT22;9471;51.168;4.154;2022-10-30T05:51:43;16.50;99.90
18682;DHT22;9471;51.168;4.154;2022-10-30T05:54:10;16.40;99.90
18682;DHT22;9471;51.168;4.154;2022-10-30T05:56:37;16.40;99.90
18682;DHT22;9471;51.168;4.154;2022-10-30T05:59:03;16.40;99.90
18682;DHT22;9471;51.168;4.154;2022-10-30T06:01:30;16.40;99.90
18682;DHT22;9471;51.168;4.154;2022-10-30T06:03:57;16.40;99.90
18682;DHT22;9471;51.168;4.154;2022-10-30T06:06:26;16.40;99.90
18682;DHT22;9471;51.168;4.154;2022-10-30T06:08:53;16.40;99.90
18682;DHT22;9471;51.168;4.154;2022-10-30T06:11:20;16.40;99.90
18682;DHT22;9471;51.168;4.154;2022-10-30T06:13:47;16.40;99.90
18682;DHT22;9471;51.168;4.154;2022-10-30T06:16:14;16.40;99.90
18682;DHT22;9471;51.168;4.154;2022-10-30T06:18:40;16.40;99.90
18682;DHT22;9471;51.168;4.154;2022-10-30T06:21:07;16.40;99.90
18682;DHT22;9471;51.168;4.154;2022-10-30T06:23:36;16.30;99.90
18682;DHT22;9471;51.168;4.154;2022-10-30T06:26:03;16.30;99.90
18682;DHT22;9471;51.168;4.154;2022-10-30T06:28:29;16.20;99.90
18682;DHT22;9471;51.168;4.154;2022-10-30T06:30:56;16.30;99.90
18682;DHT22;9471;51.168;4.154;2022-10-30T06:33:23;16.30;99.90
18682;DHT22;9471;51.168;4.154;2022-10-30T06:35:50;16.30;99.90
18682;DHT22;9471;51.168;4.154;2022-10-30T06:38:17;16.20;99.90
18682;DHT22;9471;51.168;4.154;2022-10-30T06:40:47;16.30;99.90
18682;DHT22;9471;51.168;4.154;2022-10-30T06:43:14;16.30;99.90
18682;DHT22;9471;51.168;4.154;2022-10-30T06:45:40;16.30;99.90
18682;DHT22;9471;51.168;4.154;2022-10-30T06:48:08;16.30;99.90
18682;DHT22;9471;51.168;4.154;2022-10-30T06:50:35;16.30;99.90
18682;DHT22;9471;51.168;4.154;2022-10-30T06:53:02;16.20;99.90
18682;DHT22;9471;51.168;4.154;2022-10-30T06:55:29;16.20;99.90
18682;DHT22;9471;51.168;4.154;2022-10-30T06:57:57;16.20;99.90
18682;DHT22;9471;51.168;4.154;2022-10-30T07:00:24;16.20;99.90
18682;DHT22;9471;51.168;4.154;2022-10-30T07:02:57;16.20;99.90
18682;DHT22;9471;51.168;4.154;2022-10-30T07:05:24;16.20;99.90
18682;DHT22;9471;51.168;4.154;2022-10-30T07:07:51;16.20;99.90
18682;DHT22;9471;51.168;4.154;2022-10-30T07:10:18;16.20;99.90
18682;DHT22;9471;51.168;4.154;2022-10-30T07:12:52;16.20;99.90
18682;DHT22;9471;51.168;4.154;2022-10-30T07:15:21;16.30;99.90
18682;DHT22;9471;51.168;4.154;2022-10-30T07:17:53;16.40;99.90
18682;DHT22;9471;51.168;4.154;2022-10-30T07:20:20;16.40;99.90
18682;DHT22;9471;51.168;4.154;2022-10-30T07:22:47;16.40;99.90
18682;DHT22;9471;51.168;4.154;2022-10-30T07:25:14;16.50;99.90
18682;DHT22;9471;51.168;4.154;2022-10-30T07:27:42;16.50;99.90
18682;DHT22;9471;51.168;4.154;2022-10-30T07:30:10;16.60;99.90
18682;DHT22;9471;51.168;4.154;2022-10-30T07:32:39;16.60;99.90
18682;DHT22;9471;51.168;4.154;2022-10-30T07:35:07;16.60;99.90
18682;DHT22;9471;51.168;4.154;2022-10-30T07:37:34;16.60;99.90
18682;DHT22;9471;51.168;4.154;2022-10-30T07:40:01;16.80;99.90
18682;DHT22;9471;51.168;4.154;2022-10-30T07:42:28;16.90;99.90
18682;DHT22;9471;51.168;4.154;2022-10-30T07:44:55;17.00;99.90
18682;DHT22;9471;51.168;4.154;2022-10-30T07:47:22;17.20;99.90
18682;DHT22;9471;51.168;4.154;2022-10-30T07:49:50;17.30;99.90
18682;DHT22;9471;51.168;4.154;2022-10-30T07:52:17;17.40;99.90
18682;DHT22;9471;51.168;4.154;2022-10-30T07:54:44;17.50;99.90
18682;DHT22;9471;51.168;4.154;2022-10-30T07:57:11;17.60;99.90
18682;DHT22;9471;51.168;4.154;2022-10-30T07:59:38;17.60;99.90
18682;DHT22;9471;51.168;4.154;2022-10-30T08:02:05;17.60;99.90
18682;DHT22;9471;51.168;4.154;2022-10-30T08:04:32;17.70;99.90
18682;DHT22;9471;51.168;4.154;2022-10-30T08:07:00;17.80;99.90
18682;DHT22;9471;51.168;4.154;2022-10-30T08:09:27;17.80;99.90
18682;DHT22;9471;51.168;4.154;2022-10-30T08:11:54;17.90;99.90
18682;DHT22;9471;51.168;4.154;2022-10-30T08:14:21;18.00;99.90
18682;DHT22;9471;51.168;4.154;2022-10-30T08:16:49;18.10;99.90
18682;DHT22;9471;51.168;4.154;2022-10-30T08:19:16;18.20;99.90
18682;DHT22;9471;51.168;4.154;2022-10-30T08:21:43;18.20;99.90
18682;DHT22;9471;51.168;4.154;2022-10-30T08:24:11;18.20;99.90
18682;DHT22;9471;51.168;4.154;2022-10-30T08:26:38;18.20;99.90
18682;DHT22;9471;51.168;4.154;2022-10-30T08:29:05;18.30;99.90
18682;DHT22;9471;51.168;4.154;2022-10-30T08:31:32;18.30;99.90
18682;DHT22;9471;51.168;4.154;2022-10-30T08:33:59;18.40;99.90
18682;DHT22;9471;51.168;4.154;2022-10-30T08:36:26;18.40;99.90
18682;DHT22;9471;51.168;4.154;2022-10-30T08:38:52;18.40;99.90
18682;DHT22;9471;51.168;4.154;2022-10-30T08:41:21;18.50;99.90
18682;DHT22;9471;51.168;4.154;2022-10-30T08:43:48;18.50;99.90
18682;DHT22;9471;51.168;4.154;2022-10-30T08:46:15;18.50;99.90
18682;DHT22;9471;51.168;4.154;2022-10-30T08:48:41;18.50;99.90
18682;DHT22;9471;51.168;4.154;2022-10-30T08:51:09;18.60;99.90
18682;DHT22;9471;51.168;4.154;2022-10-30T08:53:35;18.70;99.90
18682;DHT22;9471;51.168;4.154;2022-10-30T08:56:03;18.70;99.90
18682;DHT22;9471;51.168;4.154;2022-10-30T08:58:31;18.80;99.90
18682;DHT22;9471;51.168;4.154;2022-10-30T09:00:58;18.80;99.90
18682;DHT22;9471;51.168;4.154;2022-10-30T09:03:25;18.90;99.90
18682;DHT22;9471;51.168;4.154;2022-10-30T09:05:52;19.00;99.90
18682;DHT22;9471;51.168;4.154;2022-10-30T09:08:19;19.10;99.90
18682;DHT22;9471;51.168;4.154;2022-10-30T09:10:46;19.30;99.90
18682;DHT22;9471;51.168;4.154;2022-10-30T09:13:13;19.30;99.90
18682;DHT22;9471;51.168;4.154;2022-10-30T09:15:41;19.40;99.90
18682;DHT22;9471;51.168;4.154;2022-10-30T09:18:08;19.40;99.90
18682;DHT22;9471;51.168;4.154;2022-10-30T09:20:35;19.50;99.90
18682;DHT22;9471;51.168;4.154;2022-10-30T09:23:03;19.50;99.90
18682;DHT22;9471;51.168;4.154;2022-10-30T09:25:30;19.60;99.90
18682;DHT22;9471;51.168;4.154;2022-10-30T09:27:57;19.70;99.90
18682;DHT22;9471;51.168;4.154;2022-10-30T09:30:24;19.80;99.90
18682;DHT22;9471;51.168;4.154;2022-10-30T09:32:57;19.90;99.90
18682;DHT22;9471;51.168;4.154;2022-10-30T09:35:24;20.00;99.90
18682;DHT22;9471;51.168;4.154;2022-10-30T09:37:52;20.00;99.90
18682;DHT22;9471;51.168;4.154;2022-10-30T09:40:22;20.00;99.90
18682;DHT22;9471;51.168;4.154;2022-10-30T09:42:57;20.10;99.90
18682;DHT22;9471;51.168;4.154;2022-10-30T09:45:46;20.10;99.90
18682;DHT22;9471;51.168;4.154;2022-10-30T09:48:36;20.20;99.90
18682;DHT22;9471;51.168;4.154;2022-10-30T09:54:10;20.30;99.90
18682;DHT22;9471;51.168;4.154;2022-10-30T09:56:43;20.20;99.90
18682;DHT22;9471;51.168;4.154;2022-10-30T09:59:19;20.00;99.90
18682;DHT22;9471;51.168;4.154;2022-10-30T10:01:53;20.10;99.90
18682;DHT22;9471;51.168;4.154;2022-10-30T10:04:29;20.10;99.90
18682;DHT22;9471;51.168;4.154;2022-10-30T10:07:03;20.20;99.90
18682;DHT22;9471;51.168;4.154;2022-10-30T10:09:34;20.40;99.90
18682;DHT22;9471;51.168;4.154;2022-10-30T10:12:05;20.60;99.90
18682;DHT22;9471;51.168;4.154;2022-10-30T10:14:36;20.70;99.90
18682;DHT22;9471;51.168;4.154;2022-10-30T10:17:11;20.70;99.90
18682;DHT22;9471;51.168;4.154;2022-10-30T10:19:46;20.80;99.90
18682;DHT22;9471;51.168;4.154;2022-10-30T10:22:19;20.90;99.90
18682;DHT22;9471;51.168;4.154;2022-10-30T10:24:47;20.90;99.90
18682;DHT22;9471;51.168;4.154;2022-10-30T10:27:22;20.90;99.90
18682;DHT22;9471;51.168;4.154;2022-10-30T10:29:58;20.90;99.90
18682;DHT22;9471;51.168;4.154;2022-10-30T10:35:47;21.10;99.90
18682;DHT22;9471;51.168;4.154;2022-10-30T10:38:23;21.20;99.90
18682;DHT22;9471;51.168;4.154;2022-10-30T10:40:58;21.30;99.90
18682;DHT22;9471;51.168;4.154;2022-10-30T10:43:34;21.40;99.90
18682;DHT22;9471;51.168;4.154;2022-10-30T10:46:23;21.50;99.90
18682;DHT22;9471;51.168;4.154;2022-10-30T10:49:07;21.60;99.90
18682;DHT22;9471;51.168;4.154;2022-10-30T10:51:40;21.70;99.90
18682;DHT22;9471;51.168;4.154;2022-10-30T10:54:11;21.70;99.90
18682;DHT22;9471;51.168;4.154;2022-10-30T10:56:42;21.80;99.90
18682;DHT22;9471;51.168;4.154;2022-10-30T10:59:17;21.90;99.90
18682;DHT22;9471;51.168;4.154;2022-10-30T11:01:50;21.90;99.90
18682;DHT22;9471;51.168;4.154;2022-10-30T11:04:26;22.00;99.90
18682;DHT22;9471;51.168;4.154;2022-10-30T11:06:56;22.00;99.90
18682;DHT22;9471;51.168;4.154;2022-10-30T11:09:25;21.90;99.90
18682;DHT22;9471;51.168;4.154;2022-10-30T11:11:53;21.90;99.90
18682;DHT22;9471;51.168;4.154;2022-10-30T11:14:23;21.80;99.90
18682;DHT22;9471;51.168;4.154;2022-10-30T11:17:09;21.80;99.90
18682;DHT22;9471;51.168;4.154;2022-10-30T11:19:38;21.80;99.90
18682;DHT22;9471;51.168;4.154;2022-10-30T11:22:15;21.70;99.90
18682;DHT22;9471;51.168;4.154;2022-10-30T11:24:43;21.80;99.90
18682;DHT22;9471;51.168;4.154;2022-10-30T11:27:22;21.80;99.90
18682;DHT22;9471;51.168;4.154;2022-10-30T11:29:52;21.80;99.90
18682;DHT22;9471;51.168;4.154;2022-10-30T11:32:21;21.80;99.90
18682;DHT22;9471;51.168;4.154;2022-10-30T11:35:00;21.90;99.90
18682;DHT22;9471;51.168;4.154;2022-10-30T11:37:31;22.00;99.90
18682;DHT22;9471;51.168;4.154;2022-10-30T11:40:05;22.00;99.90
18682;DHT22;9471;51.168;4.154;2022-10-30T11:42:33;21.90;99.90
18682;DHT22;9471;51.168;4.154;2022-10-30T11:45:01;21.80;99.90
18682;DHT22;9471;51.168;4.154;2022-10-30T11:47:31;21.90;99.90
18682;DHT22;9471;51.168;4.154;2022-10-30T11:50:01;21.90;99.90
18682;DHT22;9471;51.168;4.154;2022-10-30T11:52:35;21.90;99.90
18682;DHT22;9471;51.168;4.154;2022-10-30T11:55:13;22.00;99.90
18682;DHT22;9471;51.168;4.154;2022-10-30T11:57:42;22.20;99.90
18682;DHT22;9471;51.168;4.154;2022-10-30T12:00:15;22.10;99.90
18682;DHT22;9471;51.168;4.154;2022-10-30T12:02:44;22.00;99.90
18682;DHT22;9471;51.168;4.154;2022-10-30T12:05:31;22.10;99.90
18682;DHT22;9471;51.168;4.154;2022-10-30T12:08:19;22.10;99.90
18682;DHT22;9471;51.168;4.154;2022-10-30T12:10:55;22.20;99.90
18682;DHT22;9471;51.168;4.154;2022-10-30T12:13:23;22.10;99.90
18682;DHT22;9471;51.168;4.154;2022-10-30T12:16:04;22.10;99.90
18682;DHT22;9471;51.168;4.154;2022-10-30T12:18:32;22.10;99.90
18682;DHT22;9471;51.168;4.154;2022-10-30T12:21:00;22.10;99.90
18682;DHT22;9471;51.168;4.154;2022-10-30T12:23:29;22.10;99.90
18682;DHT22;9471;51.168;4.154;2022-10-30T12:25:59;22.10;99.90
18682;DHT22;9471;51.168;4.154;2022-10-30T12:28:28;22.20;99.90
18682;DHT22;9471;51.168;4.154;2022-10-30T12:30:59;22.20;99.90
18682;DHT22;9471;51.168;4.154;2022-10-30T12:33:33;21.50;99.90
18682;DHT22;9471;51.168;4.154;2022-10-30T12:36:03;21.60;99.90
18682;DHT22;9471;51.168;4.154;2022-10-30T12:38:35;21.60;99.90
18682;DHT22;9471;51.168;4.154;2022-10-30T12:41:11;21.80;99.90
18682;DHT22;9471;51.168;4.154;2022-10-30T12:43:40;21.80;99.90
18682;DHT22;9471;51.168;4.154;2022-10-30T12:46:29;21.50;99.90
18682;DHT22;9471;51.168;4.154;2022-10-30T12:49:05;21.70;99.90
18682;DHT22;9471;51.168;4.154;2022-10-30T12:51:37;22.00;99.90
18682;DHT22;9471;51.168;4.154;2022-10-30T12:54:14;22.10;99.90
18682;DHT22;9471;51.168;4.154;2022-10-30T12:56:45;22.30;99.90
18682;DHT22;9471;51.168;4.154;2022-10-30T12:59:27;22.30;99.90
18682;DHT22;9471;51.168;4.154;2022-10-30T13:02:07;22.40;99.90
18682;DHT22;9471;51.168;4.154;2022-10-30T13:04:38;22.50;99.90
18682;DHT22;9471;51.168;4.154;2022-10-30T13:07:12;22.50;99.90
18682;DHT22;9471;51.168;4.154;2022-10-30T13:09:47;22.50;99.90
18682;DHT22;9471;51.168;4.154;2022-10-30T13:12:18;22.40;99.90
18682;DHT22;9471;51.168;4.154;2022-10-30T13:14:50;22.60;99.90
18682;DHT22;9471;51.168;4.154;2022-10-30T13:17:18;22.60;99.90
18682;DHT22;9471;51.168;4.154;2022-10-30T13:19:46;22.30;99.90
18682;DHT22;9471;51.168;4.154;2022-10-30T13:22:19;22.20;99.90
18682;DHT22;9471;51.168;4.154;2022-10-30T13:24:56;22.40;99.90
18682;DHT22;9471;51.168;4.154;2022-10-30T13:27:31;22.50;99.90
18682;DHT22;9471;51.168;4.154;2022-10-30T13:30:09;22.50;99.90
18682;DHT22;9471;51.168;4.154;2022-10-30T13:32:49;22.40;99.90
18682;DHT22;9471;51.168;4.154;2022-10-30T13:35:26;22.10;99.90
18682;DHT22;9471;51.168;4.154;2022-10-30T13:38:02;21.90;99.90
18682;DHT22;9471;51.168;4.154;2022-10-30T13:40:36;21.90;99.90
18682;DHT22;9471;51.168;4.154;2022-10-30T13:43:15;21.60;99.90
18682;DHT22;9471;51.168;4.154;2022-10-30T13:45:54;21.50;99.90
18682;DHT22;9471;51.168;4.154;2022-10-30T13:48:33;21.70;99.90
18682;DHT22;9471;51.168;4.154;2022-10-30T13:51:19;21.70;99.90
18682;DHT22;9471;51.168;4.154;2022-10-30T13:53:59;21.70;99.90
18682;DHT22;9471;51.168;4.154;2022-10-30T13:56:29;21.40;99.90
18682;DHT22;9471;51.168;4.154;2022-10-30T13:59:04;21.40;99.90
18682;DHT22;9471;51.168;4.154;2022-10-30T14:01:36;21.40;99.90
18682;DHT22;9471;51.168;4.154;2022-10-30T14:04:10;21.20;99.90
18682;DHT22;9471;51.168;4.154;2022-10-30T14:06:44;21.30;99.90
18682;DHT22;9471;51.168;4.154;2022-10-30T14:09:20;21.20;99.90
18682;DHT22;9471;51.168;4.154;2022-10-30T14:11:52;21.00;99.90
18682;DHT22;9471;51.168;4.154;2022-10-30T14:14:28;21.30;99.90
18682;DHT22;9471;51.168;4.154;2022-10-30T14:17:13;21.00;99.90
18682;DHT22;9471;51.168;4.154;2022-10-30T14:23:06;21.00;99.90
18682;DHT22;9471;51.168;4.154;2022-10-30T14:25:33;21.00;99.90
18682;DHT22;9471;51.168;4.154;2022-10-30T14:28:02;21.00;99.90
18682;DHT22;9471;51.168;4.154;2022-10-30T14:30:29;21.10;99.90
18682;DHT22;9471;51.168;4.154;2022-10-30T14:32:56;20.70;99.90
18682;DHT22;9471;51.168;4.154;2022-10-30T14:35:38;20.40;99.90
18682;DHT22;9471;51.168;4.154;2022-10-30T14:38:25;20.30;99.90
18682;DHT22;9471;51.168;4.154;2022-10-30T14:41:36;20.00;99.90
18682;DHT22;9471;51.168;4.154;2022-10-30T14:44:41;19.90;99.90
18682;DHT22;9471;51.168;4.154;2022-10-30T14:47:37;19.90;99.90
18682;DHT22;9471;51.168;4.154;2022-10-30T14:50:26;19.70;99.90
18682;DHT22;9471;51.168;4.154;2022-10-30T14:53:23;19.60;99.90
18682;DHT22;9471;51.168;4.154;2022-10-30T14:56:01;19.00;99.90
18682;DHT22;9471;51.168;4.154;2022-10-30T14:58:31;18.50;99.90
18682;DHT22;9471;51.168;4.154;2022-10-30T15:01:23;18.40;99.90
18682;DHT22;9471;51.168;4.154;2022-10-30T15:04:04;18.30;99.90
18682;DHT22;9471;51.168;4.154;2022-10-30T15:06:39;18.30;99.90
18682;DHT22;9471;51.168;4.154;2022-10-30T15:09:15;18.50;99.90
18682;DHT22;9471;51.168;4.154;2022-10-30T15:12:07;18.40;99.90
18682;DHT22;9471;51.168;4.154;2022-10-30T15:14:37;18.60;99.90
18682;DHT22;9471;51.168;4.154;2022-10-30T15:17:15;18.50;99.90
18682;DHT22;9471;51.168;4.154;2022-10-30T15:19:43;18.50;99.90
18682;DHT22;9471;51.168;4.154;2022-10-30T15:22:16;18.50;99.90
18682;DHT22;9471;51.168;4.154;2022-10-30T15:24:45;18.30;99.90
18682;DHT22;9471;51.168;4.154;2022-10-30T15:27:15;18.30;99.90
18682;DHT22;9471;51.168;4.154;2022-10-30T15:29:47;18.20;99.90
18682;DHT22;9471;51.168;4.154;2022-10-30T15:32:18;18.00;99.90
18682;DHT22;9471;51.168;4.154;2022-10-30T15:34:53;18.30;99.90
18682;DHT22;9471;51.168;4.154;2022-10-30T15:37:21;18.40;99.90
18682;DHT22;9471;51.168;4.154;2022-10-30T15:39:48;18.20;99.90
18682;DHT22;9471;51.168;4.154;2022-10-30T15:42:15;18.40;99.90
18682;DHT22;9471;51.168;4.154;2022-10-30T15:44:44;18.60;99.90
18682;DHT22;9471;51.168;4.154;2022-10-30T15:47:14;18.80;99.90
18682;DHT22;9471;51.168;4.154;2022-10-30T15:49:50;19.10;99.90
18682;DHT22;9471;51.168;4.154;2022-10-30T15:52:22;19.10;99.90
18682;DHT22;9471;51.168;4.154;2022-10-30T15:54:54;19.20;99.90
18682;DHT22;9471;51.168;4.154;2022-10-30T15:57:27;19.30;99.90
18682;DHT22;9471;51.168;4.154;2022-10-30T15:59:57;19.50;99.90
18682;DHT22;9471;51.168;4.154;2022-10-30T16:02:25;19.60;99.90
18682;DHT22;9471;51.168;4.154;2022-10-30T16:04:54;19.60;99.90
18682;DHT22;9471;51.168;4.154;2022-10-30T16:07:22;19.60;99.90
18682;DHT22;9471;51.168;4.154;2022-10-30T16:09:54;19.70;99.90
18682;DHT22;9471;51.168;4.154;2022-10-30T16:12:23;19.70;99.90
18682;DHT22;9471;51.168;4.154;2022-10-30T16:14:51;19.80;99.90
18682;DHT22;9471;51.168;4.154;2022-10-30T16:17:18;19.70;99.90
18682;DHT22;9471;51.168;4.154;2022-10-30T16:19:48;19.80;99.90